createdAt,value
2023-04-09T00:01:38.429Z,6.79
2023-04-09T00:04:05.157Z,6.83
2023-04-09T00:06:31.784Z,6.78
2023-04-09T00:08:58.211Z,6.71
2023-04-09T00:11:24.653Z,6.63
2023-04-09T00:13:51.318Z,6.58
2023-04-09T00:16:17.788Z,6.51
2023-04-09T00:18:44.320Z,6.57
2023-04-09T00:21:11.219Z,6.58
2023-04-09T00:23:37.800Z,6.43
2023-04-09T00:26:04.513Z,6.41
2023-04-09T00:28:30.928Z,6.53
2023-04-09T00:30:57.471Z,6.57
2023-04-09T00:33:23.969Z,6.64
2023-04-09T00:35:54.680Z,6.42
2023-04-09T00:38:22.220Z,6.42
2023-04-09T00:40:50.620Z,6.20
2023-04-09T00:43:17.973Z,6.30
2023-04-09T00:45:45.476Z,6.45
2023-04-09T00:48:16.402Z,6.25
2023-04-09T00:50:43.186Z,6.13
2023-04-09T00:53:11.002Z,6.29
2023-04-09T00:55:40.334Z,6.30
2023-04-09T00:58:07.073Z,6.09
2023-04-09T01:00:33.546Z,6.09
2023-04-09T01:03:00.879Z,6.05
2023-04-09T01:05:34.311Z,6.03
2023-04-09T01:08:08.241Z,5.98
2023-04-09T01:10:42.832Z,6.01
2023-04-09T01:13:24.057Z,6.09
2023-04-09T01:16:00.728Z,6.10
2023-04-09T01:18:41.148Z,6.20
2023-04-09T01:21:27.504Z,6.08
2023-04-09T01:24:36.884Z,5.88
2023-04-09T01:27:08.332Z,5.89
2023-04-09T01:29:39.177Z,5.80
2023-04-09T01:32:07.845Z,5.71
2023-04-09T01:34:35.404Z,5.51
2023-04-09T01:37:03.731Z,5.45
2023-04-09T01:39:31.370Z,5.48
2023-04-09T01:41:57.994Z,5.30
2023-04-09T01:44:29.017Z,5.30
2023-04-09T01:46:57.460Z,5.28
2023-04-09T01:49:28.430Z,5.36
2023-04-09T01:51:56.482Z,5.31
2023-04-09T01:54:22.974Z,5.35
2023-04-09T01:56:49.486Z,5.29
2023-04-09T01:59:16.200Z,5.21
2023-04-09T02:01:47.154Z,5.27
2023-04-09T02:04:22.156Z,5.25
2023-04-09T02:06:52.668Z,5.19
2023-04-09T02:09:21.215Z,5.04
2023-04-09T02:11:49.887Z,4.87
2023-04-09T02:14:18.672Z,4.66
2023-04-09T02:16:46.488Z,4.63
2023-04-09T02:19:12.888Z,4.57
2023-04-09T02:21:39.413Z,4.45
2023-04-09T02:24:06.001Z,4.42
2023-04-09T02:26:32.484Z,4.34
2023-04-09T02:28:58.976Z,4.46
2023-04-09T02:31:26.403Z,4.69
2023-04-09T02:33:54.214Z,4.77
2023-04-09T02:36:23.419Z,4.92
2023-04-09T02:38:49.989Z,4.87
2023-04-09T02:41:16.658Z,4.81
2023-04-09T02:43:43.065Z,4.67
2023-04-09T02:46:09.552Z,4.53
2023-04-09T02:48:35.955Z,4.45
2023-04-09T02:51:05.528Z,4.37
2023-04-09T02:53:32.007Z,4.28
2023-04-09T02:56:01.247Z,4.35
2023-04-09T02:58:30.542Z,4.28
2023-04-09T03:00:59.627Z,4.25
2023-04-09T03:03:26.374Z,4.13
2023-04-09T03:05:53.922Z,4.29
2023-04-09T03:08:20.327Z,4.31
2023-04-09T03:10:46.767Z,4.15
2023-04-09T03:13:13.258Z,4.14
2023-04-09T03:15:39.833Z,4.27
2023-04-09T03:18:06.353Z,4.36
2023-04-09T03:20:32.877Z,4.34
2023-04-09T03:23:02.114Z,4.36
2023-04-09T03:25:30.610Z,4.36
2023-04-09T03:27:57.074Z,4.35
2023-04-09T03:30:23.573Z,4.42
2023-04-09T03:32:52.469Z,4.41
2023-04-09T03:35:18.958Z,4.51
2023-04-09T03:37:48.346Z,4.48
2023-04-09T03:40:14.919Z,4.50
2023-04-09T03:42:43.200Z,4.59
2023-04-09T03:45:09.868Z,4.63
2023-04-09T03:47:36.459Z,4.58
2023-04-09T03:50:03.357Z,4.54
2023-04-09T03:52:37.060Z,4.55
2023-04-09T03:55:04.648Z,4.47
2023-04-09T03:57:32.798Z,4.45
2023-04-09T03:59:59.240Z,4.47
2023-04-09T04:02:27.160Z,4.46
2023-04-09T04:04:53.895Z,4.43
2023-04-09T04:07:20.384Z,4.34
2023-04-09T04:09:46.900Z,4.23
2023-04-09T04:12:13.369Z,4.13
2023-04-09T04:14:39.803Z,4.07
2023-04-09T04:17:06.302Z,4.06
2023-04-09T04:19:34.186Z,3.89
2023-04-09T04:22:00.692Z,3.97
2023-04-09T04:24:27.134Z,3.96
2023-04-09T04:26:53.551Z,3.79
2023-04-09T04:29:20.073Z,3.80
2023-04-09T04:31:46.623Z,3.80
2023-04-09T04:34:13.265Z,3.80
2023-04-09T04:36:39.787Z,3.72
2023-04-09T04:39:06.219Z,3.68
2023-04-09T04:41:35.208Z,3.81
2023-04-09T04:44:01.704Z,3.78
2023-04-09T04:46:28.185Z,3.72
2023-04-09T04:48:54.845Z,3.88
2023-04-09T04:51:21.460Z,3.83
2023-04-09T04:53:47.926Z,3.76
2023-04-09T04:56:15.635Z,3.72
2023-04-09T04:58:42.841Z,3.81
2023-04-09T05:01:09.448Z,3.86
2023-04-09T05:03:36.072Z,3.86
2023-04-09T05:06:04.072Z,3.78
2023-04-09T05:08:30.950Z,3.77
2023-04-09T05:10:57.511Z,3.83
2023-04-09T05:13:24.274Z,3.81
2023-04-09T05:15:50.882Z,3.75
2023-04-09T05:18:17.661Z,3.71
2023-04-09T05:20:44.257Z,3.80
2023-04-09T05:23:10.811Z,3.86
2023-04-09T05:25:37.316Z,3.89
2023-04-09T05:28:06.658Z,3.83
2023-04-09T05:30:36.510Z,3.91
2023-04-09T05:33:04.543Z,3.91
2023-04-09T05:35:31.109Z,3.83
2023-04-09T05:37:57.626Z,4.10
2023-04-09T05:40:24.229Z,3.89
2023-04-09T05:42:50.728Z,3.94
2023-04-09T05:45:17.287Z,4.00
2023-04-09T05:47:43.828Z,3.79
2023-04-09T05:50:11.515Z,3.71
2023-04-09T05:52:37.957Z,3.67
2023-04-09T05:55:09.771Z,3.81
2023-04-09T05:57:36.565Z,4.01
2023-04-09T06:00:06.553Z,4.15
2023-04-09T06:02:36.057Z,4.28
2023-04-09T06:05:06.095Z,4.43
2023-04-09T06:07:34.493Z,4.50
2023-04-09T06:10:04.718Z,4.45
2023-04-09T06:12:31.155Z,4.77
2023-04-09T06:14:57.608Z,4.94
2023-04-09T06:17:24.060Z,5.17
2023-04-09T06:19:50.580Z,5.27
2023-04-09T06:22:17.077Z,5.47
2023-04-09T06:24:43.574Z,5.51
2023-04-09T06:27:10.040Z,5.70
2023-04-09T06:29:36.456Z,5.80
2023-04-09T06:32:05.857Z,5.95
2023-04-09T06:34:34.377Z,6.10
2023-04-09T06:37:00.794Z,6.24
2023-04-09T06:39:27.927Z,6.61
2023-04-09T06:41:54.460Z,6.80
2023-04-09T06:44:21.795Z,6.92
2023-04-09T06:46:48.279Z,7.11
2023-04-09T06:49:15.108Z,7.24
2023-04-09T06:51:41.917Z,7.41
2023-04-09T06:54:08.802Z,7.43
2023-04-09T06:56:35.631Z,7.70
2023-04-09T06:59:03.771Z,7.80
2023-04-09T07:01:30.829Z,7.91
2023-04-09T07:03:57.799Z,7.83
2023-04-09T07:06:24.589Z,7.97
2023-04-09T07:08:51.375Z,7.96
2023-04-09T07:11:17.958Z,8.05
2023-04-09T07:13:44.430Z,8.20
2023-04-09T07:16:11.108Z,8.36
2023-04-09T07:18:37.676Z,8.41
2023-04-09T07:21:07.012Z,8.67
2023-04-09T07:23:37.182Z,8.77
2023-04-09T07:26:06.803Z,8.94
2023-04-09T07:28:36.787Z,9.25
2023-04-09T07:31:06.260Z,9.54
2023-04-09T07:33:36.599Z,9.47
2023-04-09T07:36:06.685Z,9.54
2023-04-09T07:38:37.077Z,9.75
2023-04-09T07:41:06.582Z,10.02
2023-04-09T07:43:34.657Z,10.06
2023-04-09T07:46:01.443Z,10.02
2023-04-09T07:48:29.454Z,9.85
2023-04-09T07:50:56.929Z,10.29
2023-04-09T07:53:23.441Z,10.27
2023-04-09T07:55:53.015Z,10.16
2023-04-09T07:58:19.501Z,10.31
2023-04-09T08:00:46.245Z,10.58
2023-04-09T08:03:14.083Z,10.94
2023-04-09T08:05:41.251Z,11.25
2023-04-09T08:08:08.006Z,11.47
2023-04-09T08:10:35.688Z,11.76
2023-04-09T08:13:05.039Z,12.01
2023-04-09T08:15:37.206Z,12.19
2023-04-09T08:18:07.233Z,12.55
2023-04-09T08:20:37.064Z,12.85
2023-04-09T08:23:04.957Z,13.39
2023-04-09T08:25:34.034Z,13.87
2023-04-09T08:28:00.488Z,14.16
2023-04-09T08:30:27.253Z,13.93
2023-04-09T08:32:53.800Z,14.19
2023-04-09T08:35:20.493Z,14.58
2023-04-09T08:37:47.212Z,14.22
2023-04-09T08:40:13.787Z,14.06
2023-04-09T08:42:46.008Z,14.33
2023-04-09T08:45:13.522Z,14.47
2023-04-09T08:47:43.018Z,14.99
2023-04-09T08:50:10.026Z,15.57
2023-04-09T08:52:37.687Z,15.62
2023-04-09T08:55:05.218Z,16.10
2023-04-09T08:57:38.368Z,16.16
2023-04-09T09:00:06.013Z,15.92
2023-04-09T09:02:36.479Z,16.05
2023-04-09T09:05:04.867Z,16.52
2023-04-09T09:07:34.809Z,16.52
2023-04-09T09:10:04.984Z,16.68
2023-04-09T09:12:39.685Z,17.03
2023-04-09T09:15:26.301Z,16.86
2023-04-09T09:17:58.397Z,17.07
2023-04-09T09:20:27.323Z,17.53
2023-04-09T09:22:56.953Z,17.58
2023-04-09T09:25:26.272Z,17.44
2023-04-09T09:27:54.692Z,17.58
2023-04-09T09:30:27.594Z,17.92
2023-04-09T09:33:04.605Z,18.52
2023-04-09T09:35:31.294Z,19.20
2023-04-09T09:38:04.461Z,19.63
2023-04-09T09:40:30.990Z,19.95
2023-04-09T09:42:58.009Z,20.01
2023-04-09T09:45:26.114Z,19.67
2023-04-09T09:50:25.260Z,20.47
2023-04-09T09:52:58.926Z,20.30
2023-04-09T09:55:30.931Z,20.21
2023-04-09T09:58:00.666Z,19.90
2023-04-09T10:00:28.853Z,20.36
2023-04-09T10:03:12.169Z,21.28
2023-04-09T10:05:40.974Z,21.87
2023-04-09T10:08:07.982Z,21.51
2023-04-09T10:10:36.519Z,21.89
2023-04-09T10:13:05.364Z,22.44
2023-04-09T10:15:35.385Z,22.93
2023-04-09T10:18:02.031Z,22.75
2023-04-09T10:20:35.708Z,21.98
2023-04-09T10:23:09.623Z,22.48
2023-04-09T10:25:36.176Z,23.05
2023-04-09T10:28:05.716Z,23.87
2023-04-09T10:30:36.580Z,24.21
2023-04-09T10:33:17.087Z,23.83
2023-04-09T10:35:46.917Z,23.65
2023-04-09T10:38:15.149Z,23.24
2023-04-09T10:40:47.381Z,23.28
2023-04-09T10:43:14.511Z,23.64
2023-04-09T10:45:42.078Z,24.14
2023-04-09T10:48:13.705Z,24.74
2023-04-09T10:50:44.237Z,24.98
2023-04-09T10:53:26.437Z,24.92
2023-04-09T10:55:54.110Z,24.46
2023-04-09T10:58:20.641Z,23.92
2023-04-09T11:00:48.613Z,23.87
2023-04-09T11:03:25.295Z,24.47
2023-04-09T11:05:52.703Z,24.92
2023-04-09T11:08:19.586Z,24.75
2023-04-09T11:10:49.041Z,24.70
2023-04-09T11:13:18.627Z,24.82
2023-04-09T11:15:46.107Z,24.84
2023-04-09T11:18:20.253Z,25.46
2023-04-09T11:20:47.073Z,26.02
2023-04-09T11:23:14.079Z,26.22
2023-04-09T11:25:40.699Z,26.37
2023-04-09T11:28:08.427Z,26.42
2023-04-09T11:30:38.629Z,26.66
2023-04-09T11:33:10.772Z,26.82
2023-04-09T11:35:37.521Z,27.33
2023-04-09T11:38:11.523Z,27.31
2023-04-09T11:40:47.695Z,27.63
2023-04-09T11:43:16.613Z,27.63
2023-04-09T11:45:44.324Z,27.55
2023-04-09T11:48:11.558Z,27.66
2023-04-09T11:50:38.137Z,27.87
2023-04-09T11:53:21.157Z,28.25
2023-04-09T11:55:52.466Z,28.32
2023-04-09T11:58:22.608Z,28.50
2023-04-09T12:00:49.169Z,28.30
2023-04-09T12:03:16.715Z,28.12
2023-04-09T12:05:50.948Z,27.91
2023-04-09T12:08:23.870Z,27.92
2023-04-09T12:10:53.375Z,27.46
2023-04-09T12:13:21.219Z,27.26
2023-04-09T12:15:49.746Z,27.37
2023-04-09T12:18:16.483Z,27.13
2023-04-09T12:20:44.524Z,27.21
2023-04-09T12:23:12.437Z,27.62
2023-04-09T12:25:41.108Z,27.59
2023-04-09T12:28:09.297Z,27.48
2023-04-09T12:30:38.809Z,27.67
2023-04-09T12:33:07.616Z,27.61
2023-04-09T12:35:36.814Z,27.25
2023-04-09T12:38:07.096Z,27.50
2023-04-09T12:40:36.946Z,27.38
2023-04-09T12:43:03.531Z,27.94
2023-04-09T12:45:30.826Z,28.24
2023-04-09T12:47:58.011Z,28.08
2023-04-09T12:50:24.652Z,28.35
2023-04-09T12:52:51.181Z,28.19
2023-04-09T12:55:17.672Z,28.55
2023-04-09T12:57:47.145Z,28.71
2023-04-09T13:00:14.338Z,27.83
2023-04-09T13:02:41.525Z,27.93
2023-04-09T13:05:11.366Z,28.15
2023-04-09T13:07:42.920Z,28.75
2023-04-09T13:10:10.274Z,29.30
2023-04-09T13:12:36.731Z,29.45
2023-04-09T13:15:03.467Z,29.51
2023-04-09T13:17:29.990Z,29.87
2023-04-09T13:19:56.571Z,29.75
2023-04-09T13:22:23.100Z,29.81
2023-04-09T13:24:49.568Z,29.84
2023-04-09T13:27:16.640Z,29.88
2023-04-09T13:29:43.212Z,29.27
2023-04-09T13:32:12.376Z,29.68
2023-04-09T13:34:42.029Z,29.74
2023-04-09T13:37:11.416Z,29.06
2023-04-09T13:39:41.219Z,28.41
2023-04-09T13:42:14.190Z,28.43
2023-04-09T13:44:42.425Z,28.81
2023-04-09T13:47:13.497Z,29.27
2023-04-09T13:49:40.726Z,29.53
2023-04-09T13:52:11.062Z,29.42
2023-04-09T13:54:40.580Z,29.24
2023-04-09T13:57:09.092Z,29.13
2023-04-09T13:59:36.111Z,29.12
2023-04-09T14:02:02.695Z,29.03
2023-04-09T14:04:29.362Z,27.62
2023-04-09T14:06:57.207Z,26.81
2023-04-09T14:09:23.670Z,27.08
2023-04-09T14:11:50.974Z,27.09
2023-04-09T14:14:18.089Z,27.68
2023-04-09T14:16:44.550Z,28.28
2023-04-09T14:19:11.110Z,28.61
2023-04-09T14:21:38.969Z,28.41
2023-04-09T14:24:05.966Z,28.49
2023-04-09T14:26:32.444Z,28.70
2023-04-09T14:28:59.053Z,29.08
2023-04-09T14:31:26.043Z,29.17
2023-04-09T14:33:52.559Z,29.13
2023-04-09T14:36:19.118Z,29.18
2023-04-09T14:38:46.083Z,29.02
2023-04-09T14:41:12.694Z,28.62
2023-04-09T14:43:42.261Z,28.65
2023-04-09T14:46:12.166Z,28.78
2023-04-09T14:48:41.566Z,28.95
2023-04-09T14:51:11.317Z,28.32
2023-04-09T14:53:43.076Z,28.06
2023-04-09T14:56:09.570Z,28.11
2023-04-09T14:58:37.998Z,28.13
2023-04-09T15:01:04.893Z,28.08
2023-04-09T15:03:31.924Z,28.07
2023-04-09T15:05:59.565Z,27.70
2023-04-09T15:08:28.431Z,27.05
2023-04-09T15:10:55.058Z,26.70
2023-04-09T15:13:21.799Z,26.94
2023-04-09T15:15:48.506Z,27.13
2023-04-09T15:18:15.620Z,27.12
2023-04-09T15:20:43.445Z,27.28
2023-04-09T15:23:10.726Z,26.70
2023-04-09T15:25:38.374Z,26.74
2023-04-09T15:28:05.927Z,26.72
2023-04-09T15:30:32.445Z,26.89
2023-04-09T15:32:58.995Z,26.59
2023-04-09T15:35:29.082Z,26.46
2023-04-09T15:37:56.874Z,25.68
2023-04-09T15:40:23.362Z,25.51
2023-04-09T15:42:49.817Z,25.33
2023-04-09T15:45:17.108Z,25.27
2023-04-09T15:47:44.602Z,25.24
2023-04-09T15:50:11.276Z,25.03
2023-04-09T15:52:40.747Z,24.93
2023-04-09T15:55:10.332Z,24.61
2023-04-09T15:57:40.129Z,24.14
2023-04-09T16:00:10.613Z,23.83
2023-04-09T16:02:39.485Z,23.76
2023-04-09T16:05:09.155Z,23.82
2023-04-09T16:07:35.649Z,23.58
2023-04-09T16:10:02.560Z,23.83
2023-04-09T16:12:29.112Z,23.79
2023-04-09T16:14:55.593Z,23.53
2023-04-09T16:17:22.090Z,23.38
2023-04-09T16:19:48.598Z,23.38
2023-04-09T16:22:15.049Z,23.37
2023-04-09T16:24:41.568Z,23.48
2023-04-09T16:27:13.023Z,23.32
2023-04-09T16:29:39.873Z,23.17
2023-04-09T16:32:08.888Z,23.15
2023-04-09T16:34:35.859Z,23.22
2023-04-09T16:37:02.471Z,23.03
2023-04-09T16:39:29.556Z,22.98
2023-04-09T16:41:58.274Z,22.82
2023-04-09T16:44:25.413Z,22.56
2023-04-09T16:46:52.003Z,22.47
2023-04-09T16:49:18.566Z,22.11
2023-04-09T16:51:46.098Z,22.08
2023-04-09T16:54:13.321Z,22.08
2023-04-09T16:56:42.540Z,21.93
2023-04-09T16:59:12.151Z,21.94
2023-04-09T17:01:41.764Z,21.86
2023-04-09T17:04:10.949Z,21.55
2023-04-09T17:07:08.790Z,21.48
2023-04-09T17:09:35.920Z,21.42
2023-04-09T17:12:02.565Z,21.56
2023-04-09T17:14:33.899Z,21.13
2023-04-09T17:17:00.784Z,21.22
2023-04-09T17:19:27.347Z,21.09
2023-04-09T17:21:53.915Z,20.73
2023-04-09T17:24:20.375Z,20.40
2023-04-09T17:26:46.836Z,20.43
2023-04-09T17:29:13.730Z,20.03
2023-04-09T17:31:40.294Z,20.04
2023-04-09T17:34:09.024Z,19.65
2023-04-09T17:36:35.545Z,19.18
2023-04-09T17:39:02.477Z,18.91
2023-04-09T17:41:29.021Z,18.78
2023-04-09T17:43:55.524Z,18.61
2023-04-09T17:46:22.195Z,18.27
2023-04-09T17:48:48.781Z,18.01
2023-04-09T17:51:20.024Z,17.98
2023-04-09T17:53:47.388Z,17.56
2023-04-09T17:56:18.062Z,17.67
2023-04-09T17:58:45.063Z,17.54
2023-04-09T18:01:13.387Z,17.32
2023-04-09T18:03:45.515Z,17.12
2023-04-09T18:06:12.541Z,16.95
2023-04-09T18:08:43.335Z,16.66
2023-04-09T18:11:15.453Z,16.82
2023-04-09T18:13:42.012Z,16.63
2023-04-09T18:16:12.510Z,16.67
2023-04-09T18:18:42.070Z,16.46
2023-04-09T18:21:11.678Z,16.19
2023-04-09T18:23:41.279Z,16.33
2023-04-09T18:26:11.494Z,15.98
2023-04-09T18:28:40.310Z,16.12
2023-04-09T18:31:09.491Z,16.01
2023-04-09T18:33:36.465Z,15.99
2023-04-09T18:36:03.382Z,15.81
2023-04-09T18:38:30.516Z,15.72
2023-04-09T18:40:57.752Z,15.54
2023-04-09T18:43:26.056Z,15.41
2023-04-09T18:45:52.731Z,15.46
2023-04-09T18:48:19.421Z,15.38
2023-04-09T18:50:46.122Z,15.30
2023-04-09T18:53:12.720Z,15.20
2023-04-09T18:55:42.292Z,15.14
2023-04-09T18:58:14.918Z,15.09
2023-04-09T19:00:42.294Z,15.03
2023-04-09T19:03:11.141Z,14.89
2023-04-09T19:05:40.034Z,14.85
2023-04-09T19:08:10.646Z,14.83
2023-04-09T19:10:37.366Z,14.62
2023-04-09T19:13:03.858Z,14.59
2023-04-09T19:15:30.437Z,14.48
2023-04-09T19:17:57.393Z,14.43
2023-04-09T19:20:23.924Z,14.23
2023-04-09T19:26:50.821Z,13.88
2023-04-09T19:29:49.722Z,14.15
2023-04-09T19:32:18.834Z,13.86
2023-04-09T19:35:51.667Z,13.62
2023-04-09T19:38:18.684Z,13.88
2023-04-09T19:40:45.893Z,13.79
2023-04-09T19:43:12.618Z,13.74
2023-04-09T19:45:45.336Z,13.62
2023-04-09T19:48:12.703Z,13.65
2023-04-09T19:50:43.437Z,13.63
2023-04-09T19:53:12.860Z,13.63
2023-04-09T19:55:40.934Z,13.56
2023-04-09T19:58:10.173Z,13.43
2023-04-09T20:00:36.691Z,13.36
2023-04-09T20:03:05.781Z,13.28
2023-04-09T20:05:32.713Z,13.18
2023-04-09T20:07:59.398Z,13.07
2023-04-09T20:10:25.871Z,13.08
2023-04-09T20:12:52.409Z,13.12
2023-04-09T20:15:21.961Z,13.07
2023-04-09T20:17:49.658Z,12.97
2023-04-09T20:20:20.177Z,12.89
2023-04-09T20:22:55.585Z,12.86
2023-04-09T20:25:23.183Z,12.86
2023-04-09T20:27:52.353Z,12.77
2023-04-09T20:30:18.893Z,12.57
2023-04-09T20:32:45.395Z,12.47
2023-04-09T20:35:13.567Z,12.39
2023-04-09T20:37:43.189Z,12.39
2023-04-09T20:40:12.695Z,12.34
2023-04-09T20:42:41.280Z,12.26
2023-04-09T20:45:11.597Z,12.19
2023-04-09T20:47:39.426Z,12.10
2023-04-09T20:50:06.554Z,11.93
2023-04-09T20:52:33.046Z,11.83
2023-04-09T20:54:59.638Z,11.60
2023-04-09T20:57:26.101Z,11.57
2023-04-09T20:59:55.197Z,11.41
2023-04-09T21:02:22.340Z,11.28
2023-04-09T21:04:48.951Z,11.21
2023-04-09T21:07:15.698Z,11.22
2023-04-09T21:09:42.157Z,11.28
2023-04-09T21:12:13.004Z,11.37
2023-04-09T21:16:54.704Z,11.43
2023-04-09T21:18:08.887Z,11.13
2023-04-09T21:20:35.521Z,11.23
2023-04-09T21:23:01.978Z,11.13
2023-04-09T21:25:29.527Z,11.07
2023-04-09T21:27:56.295Z,10.97
2023-04-09T21:30:23.017Z,10.82
2023-04-09T21:32:49.460Z,10.80
2023-04-09T21:35:16.345Z,10.82
2023-04-09T21:37:46.444Z,10.82
2023-04-09T21:40:17.867Z,10.61
2023-04-09T21:42:44.406Z,10.77
2023-04-09T21:45:13.177Z,10.64
2023-04-09T21:47:40.033Z,10.57
2023-04-09T21:50:07.331Z,10.40
2023-04-09T21:52:34.410Z,10.52
2023-04-09T21:55:00.924Z,10.31
2023-04-09T21:57:27.443Z,10.13
2023-04-09T21:59:53.862Z,10.31
2023-04-09T22:02:20.568Z,10.31
2023-04-09T22:04:47.119Z,10.19
2023-04-09T22:07:13.697Z,10.17
2023-04-09T22:09:40.385Z,9.99
2023-04-09T22:12:07.254Z,10.07
2023-04-09T22:14:33.809Z,9.98
2023-04-09T22:17:01.761Z,9.86
2023-04-09T22:19:30.087Z,9.90
2023-04-09T22:21:57.246Z,10.02
2023-04-09T22:24:26.882Z,10.04
2023-04-09T22:26:53.624Z,10.04
2023-04-09T22:29:20.185Z,9.95
2023-04-09T22:31:46.698Z,9.78
2023-04-09T22:34:20.821Z,9.65
2023-04-09T22:36:48.279Z,9.46
2023-04-09T22:39:15.493Z,9.61
2023-04-09T22:41:41.957Z,9.62
2023-04-09T22:44:09.653Z,9.57
2023-04-09T22:46:36.601Z,9.56
2023-04-09T22:49:05.627Z,9.43
2023-04-09T22:51:34.759Z,9.45
2023-04-09T22:54:02.187Z,9.50
2023-04-09T22:56:30.123Z,9.52
2023-04-09T22:58:56.549Z,9.34
2023-04-09T23:01:23.253Z,8.92
2023-04-09T23:03:50.742Z,8.94
2023-04-09T23:06:17.324Z,8.75
2023-04-09T23:08:44.380Z,8.80
2023-04-09T23:11:11.321Z,8.74
2023-04-09T23:13:38.540Z,8.92
2023-04-09T23:16:08.926Z,8.94
2023-04-09T23:18:36.353Z,8.93
2023-04-09T23:21:12.505Z,9.02
2023-04-09T23:23:39.158Z,8.80
2023-04-09T23:26:06.172Z,8.80
2023-04-09T23:28:32.926Z,8.87
2023-04-09T23:30:59.640Z,8.94
2023-04-09T23:33:26.236Z,8.86
2023-04-09T23:35:52.854Z,8.66
2023-04-09T23:38:22.411Z,8.74
2023-04-09T23:40:51.938Z,8.77
2023-04-09T23:43:21.655Z,8.46
2023-04-09T23:45:50.407Z,8.58
2023-04-09T23:48:16.914Z,8.46
2023-04-09T23:50:43.373Z,8.37
2023-04-09T23:53:09.890Z,8.33
2023-04-09T23:55:41.395Z,8.41
2023-04-09T23:58:08.272Z,8.29
